createdAt,value
2022-08-25T00:02:00.410Z,17.60
2022-08-25T00:04:30.003Z,17.60
2022-08-25T00:07:02.182Z,17.60
2022-08-25T00:09:31.556Z,17.60
2022-08-25T00:11:58.671Z,17.60
2022-08-25T00:14:32.681Z,17.60
2022-08-25T00:16:59.775Z,17.60
2022-08-25T00:19:32.192Z,17.60
2022-08-25T00:22:00.731Z,17.60
2022-08-25T00:24:28.297Z,17.60
2022-08-25T00:26:57.557Z,17.60
2022-08-25T00:29:28.250Z,17.60
2022-08-25T00:31:56.160Z,17.60
2022-08-25T00:34:28.338Z,17.60
2022-08-25T00:36:55.260Z,17.50
2022-08-25T00:39:24.283Z,17.50
2022-08-25T00:41:56.516Z,17.50
2022-08-25T00:44:26.394Z,17.50
2022-08-25T00:46:57.342Z,17.40
2022-08-25T00:49:39.735Z,17.40
2022-08-25T00:52:13.460Z,17.40
2022-08-25T00:54:55.851Z,17.40
2022-08-25T00:57:35.112Z,17.40
2022-08-25T01:00:12.250Z,17.40
2022-08-25T01:02:40.199Z,17.50
2022-08-25T01:05:07.777Z,17.40
2022-08-25T01:07:34.952Z,17.40
2022-08-25T01:10:02.816Z,17.40
2022-08-25T01:12:29.702Z,17.40
2022-08-25T01:14:56.847Z,17.40
2022-08-25T01:17:27.765Z,17.50
2022-08-25T01:19:55.765Z,17.40
2022-08-25T01:22:22.621Z,17.40
2022-08-25T01:25:07.790Z,17.40
2022-08-25T01:27:34.650Z,17.40
2022-08-25T01:30:01.547Z,17.30
2022-08-25T01:32:28.406Z,17.30
2022-08-25T01:34:55.229Z,17.30
2022-08-25T01:37:22.085Z,17.30
2022-08-25T01:39:49.144Z,17.30
2022-08-25T01:42:49.853Z,17.30
2022-08-25T01:45:16.776Z,17.30
2022-08-25T01:47:43.665Z,17.30
2022-08-25T01:50:12.137Z,17.30
2022-08-25T01:53:08.226Z,17.30
2022-08-25T01:55:51.738Z,17.20
2022-08-25T01:58:27.288Z,17.20
2022-08-25T02:00:57.865Z,17.20
2022-08-25T02:03:26.496Z,17.20
2022-08-25T02:05:55.328Z,17.20
2022-08-25T02:08:23.294Z,17.20
2022-08-25T02:10:52.399Z,17.20
2022-08-25T02:13:20.865Z,17.10
2022-08-25T02:15:57.125Z,17.10
2022-08-25T02:18:24.900Z,17.10
2022-08-25T02:20:52.163Z,17.10
2022-08-25T02:23:19.171Z,17.10
2022-08-25T02:25:46.123Z,17.00
2022-08-25T02:28:13.693Z,17.10
2022-08-25T02:30:42.885Z,17.10
2022-08-25T02:33:10.456Z,17.10
2022-08-25T02:35:37.934Z,17.10
2022-08-25T02:38:05.773Z,17.10
2022-08-25T02:40:32.829Z,17.10
2022-08-25T02:42:59.786Z,17.10
2022-08-25T02:45:26.665Z,17.10
2022-08-25T02:47:53.853Z,17.10
2022-08-25T02:50:21.008Z,17.10
2022-08-25T02:52:50.496Z,17.10
2022-08-25T02:55:18.464Z,17.10
2022-08-25T02:57:45.288Z,17.00
2022-08-25T03:00:14.648Z,17.00
2022-08-25T03:02:42.965Z,17.00
2022-08-25T03:05:11.850Z,17.00
2022-08-25T03:07:39.064Z,17.00
2022-08-25T03:10:14.650Z,17.00
2022-08-25T03:12:41.808Z,16.90
2022-08-25T03:15:12.927Z,16.90
2022-08-25T03:17:40.728Z,16.90
2022-08-25T03:20:08.463Z,16.90
2022-08-25T03:22:36.357Z,16.90
2022-08-25T03:25:24.325Z,16.90
2022-08-25T03:27:52.005Z,16.90
2022-08-25T03:30:19.580Z,16.90
2022-08-25T03:32:46.497Z,16.90
2022-08-25T03:35:13.531Z,16.90
2022-08-25T03:37:40.884Z,16.90
2022-08-25T03:40:16.289Z,16.80
2022-08-25T03:42:47.131Z,16.80
2022-08-25T03:45:16.657Z,16.80
2022-08-25T03:47:48.293Z,16.80
2022-08-25T03:50:17.585Z,16.80
2022-08-25T03:52:45.480Z,16.70
2022-08-25T03:55:14.865Z,16.70
2022-08-25T03:57:41.728Z,16.70
2022-08-25T04:00:12.197Z,16.70
2022-08-25T04:02:40.526Z,16.70
2022-08-25T04:05:08.799Z,16.70
2022-08-25T04:07:36.033Z,16.70
2022-08-25T04:10:05.267Z,16.70
2022-08-25T04:12:32.093Z,16.70
2022-08-25T04:14:59.081Z,16.70
2022-08-25T04:17:26.181Z,16.70
2022-08-25T04:19:53.073Z,16.70
2022-08-25T04:22:19.893Z,16.60
2022-08-25T04:24:46.774Z,16.70
2022-08-25T04:27:14.547Z,16.60
2022-08-25T04:29:41.619Z,16.70
2022-08-25T04:32:08.598Z,16.70
2022-08-25T04:34:35.766Z,16.70
2022-08-25T04:37:06.222Z,16.70
2022-08-25T04:39:33.658Z,16.70
2022-08-25T04:42:01.246Z,16.70
2022-08-25T04:44:30.066Z,16.70
2022-08-25T04:46:57.098Z,16.70
2022-08-25T04:49:24.018Z,16.70
2022-08-25T04:51:50.919Z,16.70
2022-08-25T04:54:21.973Z,16.80
2022-08-25T04:56:50.944Z,16.80
2022-08-25T04:59:21.611Z,16.80
2022-08-25T05:01:49.738Z,16.90
2022-08-25T05:04:28.088Z,16.90
2022-08-25T05:06:56.653Z,17.00
2022-08-25T05:09:23.995Z,17.00
2022-08-25T05:11:53.588Z,17.10
2022-08-25T05:14:22.222Z,17.20
2022-08-25T05:16:52.824Z,17.20
2022-08-25T05:19:19.971Z,17.30
2022-08-25T05:21:47.133Z,17.40
2022-08-25T05:24:13.988Z,17.50
2022-08-25T05:26:41.153Z,17.60
2022-08-25T05:29:08.152Z,17.70
2022-08-25T05:31:41.754Z,17.80
2022-08-25T05:34:10.196Z,17.80
2022-08-25T05:36:38.381Z,17.90
2022-08-25T05:39:05.378Z,18.10
2022-08-25T05:41:33.450Z,18.30
2022-08-25T05:44:00.344Z,18.50
2022-08-25T05:46:27.331Z,18.60
2022-08-25T05:48:58.897Z,18.70
2022-08-25T05:51:26.288Z,18.80
2022-08-25T05:53:53.258Z,18.90
2022-08-25T05:56:20.812Z,19.10
2022-08-25T05:58:48.324Z,19.30
2022-08-25T06:02:02.229Z,19.40
2022-08-25T06:04:29.129Z,19.60
2022-08-25T06:06:55.974Z,19.70
2022-08-25T06:09:23.222Z,19.80
2022-08-25T06:11:54.752Z,20.00
2022-08-25T06:14:22.620Z,20.10
2022-08-25T06:16:51.494Z,20.40
2022-08-25T06:19:18.527Z,20.70
2022-08-25T06:21:45.378Z,20.80
2022-08-25T06:24:15.560Z,21.00
2022-08-25T06:26:43.952Z,21.20
2022-08-25T06:29:10.868Z,21.40
2022-08-25T06:31:37.786Z,21.60
2022-08-25T06:34:04.713Z,21.70
2022-08-25T06:36:31.844Z,21.90
2022-08-25T06:38:58.723Z,22.10
2022-08-25T06:41:25.625Z,22.20
2022-08-25T06:44:05.262Z,22.10
2022-08-25T06:46:36.244Z,22.30
2022-08-25T06:49:08.043Z,22.30
2022-08-25T06:51:38.085Z,22.50
2022-08-25T06:54:06.656Z,22.70
2022-08-25T06:56:34.649Z,22.80
2022-08-25T06:59:04.242Z,22.80
2022-08-25T07:01:32.053Z,22.80
2022-08-25T07:04:01.491Z,22.80
2022-08-25T07:06:31.702Z,23.00
2022-08-25T07:08:59.782Z,23.00
2022-08-25T07:11:27.121Z,23.10
2022-08-25T07:13:54.269Z,23.30
2022-08-25T07:16:21.967Z,23.50
2022-08-25T07:18:49.440Z,23.50
2022-08-25T07:21:16.897Z,23.70
2022-08-25T07:23:44.368Z,23.80
2022-08-25T07:26:36.695Z,24.20
2022-08-25T07:29:11.059Z,24.20
2022-08-25T07:31:38.330Z,24.30
2022-08-25T07:34:25.757Z,24.50
2022-08-25T07:36:54.621Z,24.40
2022-08-25T07:39:22.697Z,24.00
2022-08-25T07:44:37.998Z,24.70
2022-08-25T07:47:05.004Z,24.80
2022-08-25T07:49:36.012Z,24.60
2022-08-25T07:52:07.056Z,24.60
2022-08-25T07:54:37.679Z,24.60
2022-08-25T07:57:07.787Z,24.40
2022-08-25T07:59:39.410Z,24.40
2022-08-25T08:02:18.039Z,24.40
2022-08-25T08:04:49.481Z,24.50
2022-08-25T08:07:36.983Z,24.40
2022-08-25T08:13:00.340Z,24.40
2022-08-25T08:15:29.985Z,24.50
2022-08-25T08:17:58.374Z,24.60
2022-08-25T08:20:27.209Z,24.90
2022-08-25T08:22:54.763Z,25.20
2022-08-25T08:25:27.665Z,25.00
2022-08-25T08:27:56.143Z,25.10
2022-08-25T08:30:26.382Z,25.20
2022-08-25T08:33:11.801Z,25.60
2022-08-25T08:35:43.031Z,25.90
2022-08-25T08:42:07.332Z,26.00
2022-08-25T08:44:40.857Z,26.20
2022-08-25T08:47:50.641Z,26.40
2022-08-25T08:50:33.034Z,26.30
2022-08-25T08:53:23.345Z,26.10
2022-08-25T08:55:56.099Z,26.10
2022-08-25T08:58:49.872Z,25.90
2022-08-25T09:01:26.884Z,26.10
2022-08-25T09:04:18.704Z,25.90
2022-08-25T09:06:49.514Z,25.80
2022-08-25T09:09:26.173Z,25.80
2022-08-25T09:12:31.661Z,26.00
2022-08-25T09:15:47.936Z,26.00
2022-08-25T09:18:50.897Z,26.10
2022-08-25T09:21:39.375Z,26.00
2022-08-25T09:24:17.005Z,25.90
2022-08-25T09:27:01.046Z,26.00
2022-08-25T09:29:54.477Z,26.10
2022-08-25T09:32:24.432Z,26.20
2022-08-25T09:34:59.712Z,26.10
2022-08-25T09:37:26.856Z,26.30
2022-08-25T09:39:55.247Z,26.20
2022-08-25T09:42:57.616Z,26.20
2022-08-25T09:45:47.991Z,25.90
2022-08-25T09:48:24.194Z,25.70
2022-08-25T09:50:58.113Z,25.80
2022-08-25T09:53:25.402Z,26.00
2022-08-25T09:56:07.435Z,26.20
2022-08-25T09:58:34.394Z,26.00
2022-08-25T10:01:13.180Z,26.20
2022-08-25T10:03:58.169Z,26.50
2022-08-25T10:06:28.808Z,26.50
2022-08-25T10:09:03.402Z,26.50
2022-08-25T10:11:57.616Z,26.90
2022-08-25T10:14:35.687Z,27.10
2022-08-25T10:17:16.438Z,26.90
2022-08-25T10:19:44.170Z,26.70
2022-08-25T10:22:21.165Z,26.80
2022-08-25T10:24:49.068Z,27.00
2022-08-25T10:27:58.469Z,27.00
2022-08-25T10:30:46.734Z,27.20
2022-08-25T10:33:28.445Z,28.20
2022-08-25T10:36:22.973Z,28.80
2022-08-25T10:38:57.581Z,28.90
2022-08-25T10:42:01.028Z,28.80
2022-08-25T10:45:44.426Z,29.10
2022-08-25T10:48:33.123Z,29.50
2022-08-25T10:51:02.807Z,29.90
2022-08-25T10:53:47.259Z,30.00
2022-08-25T10:56:29.470Z,29.70
2022-08-25T10:59:26.700Z,29.60
2022-08-25T11:02:14.703Z,29.90
2022-08-25T11:05:06.771Z,29.70
2022-08-25T11:07:38.653Z,28.90
2022-08-25T11:10:39.654Z,28.50
2022-08-25T11:13:17.292Z,28.90
2022-08-25T11:16:15.517Z,29.30
2022-08-25T11:18:57.670Z,29.70
2022-08-25T11:21:52.816Z,29.90
2022-08-25T11:24:51.612Z,29.90
2022-08-25T11:27:24.709Z,29.70
2022-08-25T11:30:07.968Z,30.00
2022-08-25T11:32:39.911Z,30.30
2022-08-25T11:35:13.672Z,30.40
2022-08-25T11:38:18.797Z,30.60
2022-08-25T11:40:59.577Z,30.70
2022-08-25T11:44:02.229Z,30.90
2022-08-25T11:47:03.839Z,31.30
2022-08-25T11:49:53.473Z,31.70
2022-08-25T11:52:38.961Z,32.00
2022-08-25T11:55:22.764Z,32.60
2022-08-25T11:57:53.933Z,32.70
2022-08-25T12:00:41.784Z,32.70
2022-08-25T12:03:36.939Z,33.30
2022-08-25T12:06:33.393Z,33.10
2022-08-25T12:09:00.154Z,33.20
2022-08-25T12:11:43.004Z,32.50
2022-08-25T12:14:22.096Z,32.00
2022-08-25T12:16:51.929Z,31.70
2022-08-25T12:19:38.126Z,31.50
2022-08-25T12:22:04.908Z,31.60
2022-08-25T12:24:47.818Z,31.60
2022-08-25T12:27:46.065Z,31.20
2022-08-25T12:30:27.948Z,31.10
2022-08-25T12:33:32.452Z,31.50
2022-08-25T12:36:04.025Z,31.50
2022-08-25T12:38:42.512Z,31.60
2022-08-25T12:41:15.193Z,31.90
2022-08-25T12:43:48.749Z,32.50
2022-08-25T12:46:22.006Z,32.30
2022-08-25T12:49:00.981Z,31.80
2022-08-25T12:51:33.477Z,31.50
2022-08-25T12:54:19.039Z,31.40
2022-08-25T12:57:05.120Z,31.80
2022-08-25T12:59:47.055Z,31.90
2022-08-25T13:03:02.801Z,31.90
2022-08-25T13:05:55.248Z,32.20
2022-08-25T13:08:47.929Z,31.80
2022-08-25T13:11:25.829Z,31.80
2022-08-25T13:14:07.779Z,31.70
2022-08-25T13:16:37.224Z,31.70
2022-08-25T13:19:06.787Z,31.90
2022-08-25T13:21:39.267Z,32.50
2022-08-25T13:24:28.076Z,32.60
2022-08-25T13:27:09.329Z,33.20
2022-08-25T13:29:52.047Z,34.00
2022-08-25T13:32:35.720Z,34.20
2022-08-25T13:35:32.768Z,34.50
2022-08-25T13:38:18.154Z,35.10
2022-08-25T13:40:45.578Z,35.70
2022-08-25T13:43:14.334Z,36.70
2022-08-25T13:45:48.077Z,36.90
2022-08-25T13:48:49.827Z,37.00
2022-08-25T13:51:31.215Z,37.30
2022-08-25T13:54:06.206Z,37.10
2022-08-25T13:56:41.620Z,36.10
2022-08-25T13:59:31.228Z,34.20
2022-08-25T14:01:59.763Z,33.40
2022-08-25T14:04:50.580Z,33.70
2022-08-25T14:07:21.348Z,33.70
2022-08-25T14:09:56.243Z,32.70
2022-08-25T14:12:46.394Z,32.10
2022-08-25T14:15:29.492Z,31.40
2022-08-25T14:18:32.493Z,32.20
2022-08-25T14:21:03.884Z,34.50
2022-08-25T14:23:31.253Z,35.70
2022-08-25T14:25:58.738Z,36.40
2022-08-25T14:28:29.393Z,37.00
2022-08-25T14:31:02.536Z,37.70
2022-08-25T14:33:40.527Z,38.10
2022-08-25T14:36:07.829Z,38.60
2022-08-25T14:38:38.593Z,38.40
2022-08-25T14:43:38.882Z,37.90
2022-08-25T14:46:22.168Z,38.90
2022-08-25T14:48:55.481Z,39.70
2022-08-25T14:51:24.207Z,39.50
2022-08-25T14:53:54.819Z,39.30
2022-08-25T14:56:21.933Z,38.90
2022-08-25T14:58:53.979Z,38.70
2022-08-25T15:01:28.573Z,38.40
2022-08-25T15:04:11.773Z,38.70
2022-08-25T15:06:42.436Z,38.00
2022-08-25T15:09:16.332Z,38.00
2022-08-25T15:11:50.560Z,38.20
2022-08-25T15:14:29.102Z,38.50
2022-08-25T15:17:01.582Z,38.30
2022-08-25T15:19:29.024Z,38.30
2022-08-25T15:21:58.213Z,38.70
2022-08-25T15:24:28.125Z,38.70
2022-08-25T15:27:01.881Z,38.90
2022-08-25T15:29:31.506Z,38.90
2022-08-25T15:32:00.202Z,37.50
2022-08-25T15:34:27.618Z,36.20
2022-08-25T15:36:56.314Z,35.30
2022-08-25T15:39:23.153Z,33.80
2022-08-25T15:41:52.422Z,32.70
2022-08-25T15:44:19.936Z,31.70
2022-08-25T15:46:49.883Z,31.20
2022-08-25T15:49:20.762Z,30.90
2022-08-25T15:51:52.452Z,30.60
2022-08-25T15:54:20.725Z,30.20
2022-08-25T15:56:47.663Z,29.70
2022-08-25T15:59:15.047Z,29.50
2022-08-25T16:01:44.224Z,29.40
2022-08-25T16:04:11.808Z,29.40
2022-08-25T16:06:39.249Z,29.30
2022-08-25T16:09:07.245Z,29.00
2022-08-25T16:11:35.521Z,28.80
2022-08-25T16:14:06.304Z,28.70
2022-08-25T16:16:33.808Z,28.50
2022-08-25T16:19:01.495Z,28.30
2022-08-25T16:21:35.040Z,28.10
2022-08-25T16:24:07.757Z,28.10
2022-08-25T16:26:36.797Z,27.90
2022-08-25T16:29:06.997Z,27.70
2022-08-25T16:31:33.887Z,27.50
2022-08-25T16:34:01.552Z,27.30
2022-08-25T16:36:29.246Z,27.20
2022-08-25T16:38:57.639Z,27.10
2022-08-25T16:41:34.211Z,27.00
2022-08-25T16:44:07.704Z,26.90
2022-08-25T16:46:40.751Z,26.90
2022-08-25T16:49:09.708Z,26.80
2022-08-25T16:51:38.663Z,26.80
2022-08-25T16:54:26.679Z,26.60
2022-08-25T16:56:55.187Z,26.50
2022-08-25T16:59:23.814Z,26.40
2022-08-25T17:01:52.571Z,26.20
2022-08-25T17:04:20.553Z,26.00
2022-08-25T17:06:49.357Z,25.80
2022-08-25T17:09:22.787Z,25.70
2022-08-25T17:11:52.642Z,25.70
2022-08-25T17:14:21.466Z,25.60
2022-08-25T17:16:48.664Z,25.50
2022-08-25T17:19:18.639Z,25.40
2022-08-25T17:21:49.987Z,25.30
2022-08-25T17:24:17.674Z,25.10
2022-08-25T17:26:49.732Z,25.00
2022-08-25T17:29:18.359Z,24.90
2022-08-25T17:31:48.278Z,24.80
2022-08-25T17:34:16.763Z,24.70
2022-08-25T17:36:47.314Z,24.60
2022-08-25T17:39:15.169Z,24.50
2022-08-25T17:41:43.894Z,24.50
2022-08-25T17:44:11.813Z,24.40
2022-08-25T17:46:44.155Z,24.40
2022-08-25T17:49:15.598Z,24.30
2022-08-25T17:51:42.789Z,24.10
2022-08-25T17:54:09.931Z,24.10
2022-08-25T17:56:37.972Z,24.00
2022-08-25T17:59:04.879Z,24.00
2022-08-25T18:01:34.934Z,23.90
2022-08-25T18:04:07.245Z,23.80
2022-08-25T18:06:45.672Z,23.60
2022-08-25T18:09:12.743Z,23.50
2022-08-25T18:11:39.586Z,23.40
2022-08-25T18:14:06.401Z,23.40
2022-08-25T18:16:33.287Z,23.40
2022-08-25T18:19:01.736Z,23.30
2022-08-25T18:21:30.399Z,23.20
2022-08-25T18:23:58.767Z,23.20
2022-08-25T18:26:26.214Z,23.10
2022-08-25T18:28:53.316Z,23.10
2022-08-25T18:31:20.386Z,23.10
2022-08-25T18:33:47.605Z,23.10
2022-08-25T18:36:20.349Z,23.00
2022-08-25T18:39:07.031Z,22.90
2022-08-25T18:41:38.759Z,22.90
2022-08-25T18:44:07.641Z,22.90
2022-08-25T18:46:35.071Z,22.90
2022-08-25T18:49:03.074Z,22.80
2022-08-25T18:51:33.119Z,22.80
2022-08-25T18:54:01.056Z,22.70
2022-08-25T18:56:28.997Z,22.70
2022-08-25T18:58:56.382Z,22.70
2022-08-25T19:01:24.115Z,22.70
2022-08-25T19:03:51.339Z,22.60
2022-08-25T19:06:19.167Z,22.70
2022-08-25T19:08:46.934Z,22.60
2022-08-25T19:11:14.920Z,22.60
2022-08-25T19:13:43.906Z,22.60
2022-08-25T19:16:20.396Z,22.60
2022-08-25T19:18:48.864Z,22.60
2022-08-25T19:21:20.513Z,22.50
2022-08-25T19:23:51.335Z,22.50
2022-08-25T19:26:19.731Z,22.40
2022-08-25T19:28:48.808Z,22.40
2022-08-25T19:31:18.148Z,22.50
2022-08-25T19:33:47.993Z,22.40
2022-08-25T19:36:17.884Z,22.50
2022-08-25T19:38:48.696Z,22.50
2022-08-25T19:41:20.122Z,22.40
2022-08-25T19:43:55.266Z,22.40
2022-08-25T19:46:36.180Z,22.30
2022-08-25T19:49:14.225Z,22.30
2022-08-25T19:51:47.058Z,22.30
2022-08-25T19:54:27.487Z,22.30
2022-08-25T19:56:55.725Z,22.30
2022-08-25T19:59:34.162Z,22.20
2022-08-25T20:02:09.815Z,22.20
2022-08-25T20:04:37.715Z,22.10
2022-08-25T20:07:04.649Z,22.10
2022-08-25T20:09:39.207Z,22.00
2022-08-25T20:12:10.401Z,22.00
2022-08-25T20:14:37.744Z,21.90
2022-08-25T20:17:14.598Z,21.90
2022-08-25T20:19:55.331Z,21.90
2022-08-25T20:22:26.166Z,21.80
2022-08-25T20:25:13.234Z,21.80
2022-08-25T20:27:53.963Z,21.80
2022-08-25T20:30:25.722Z,21.80
2022-08-25T20:32:56.235Z,21.80
2022-08-25T20:35:26.375Z,21.80
2022-08-25T20:37:58.224Z,21.80
2022-08-25T20:40:28.698Z,21.80
2022-08-25T20:42:59.110Z,21.80
2022-08-25T20:45:25.993Z,21.80
2022-08-25T20:47:52.967Z,21.80
2022-08-25T20:50:20.552Z,21.70
2022-08-25T20:52:48.518Z,21.70
2022-08-25T20:55:15.578Z,21.60
2022-08-25T20:57:46.505Z,21.60
2022-08-25T21:00:14.248Z,21.60
2022-08-25T21:02:43.138Z,21.50
2022-08-25T21:05:10.034Z,21.50
2022-08-25T21:07:37.038Z,21.40
2022-08-25T21:10:10.712Z,21.40
2022-08-25T21:12:42.249Z,21.30
2022-08-25T21:15:10.452Z,21.20
2022-08-25T21:17:37.421Z,21.20
2022-08-25T21:20:06.785Z,21.20
2022-08-25T21:22:35.563Z,21.10
2022-08-25T21:25:05.617Z,21.10
2022-08-25T21:27:33.871Z,21.00
2022-08-25T21:30:00.840Z,21.00
2022-08-25T21:32:27.758Z,20.90
2022-08-25T21:34:56.764Z,20.90
2022-08-25T21:37:25.128Z,20.90
2022-08-25T21:39:52.883Z,20.90
2022-08-25T21:42:22.338Z,20.80
2022-08-25T21:44:50.643Z,20.80
2022-08-25T21:47:21.017Z,20.80
2022-08-25T21:49:49.771Z,20.70
2022-08-25T21:52:17.304Z,20.70
2022-08-25T21:54:44.979Z,20.70
2022-08-25T21:57:11.813Z,20.60
2022-08-25T21:59:41.002Z,20.60
2022-08-25T22:02:11.290Z,20.50
2022-08-25T22:04:39.693Z,20.50
2022-08-25T22:07:08.307Z,20.50
2022-08-25T22:09:36.336Z,20.50
2022-08-25T22:12:05.046Z,20.50
2022-08-25T22:14:32.575Z,20.50
2022-08-25T22:16:59.673Z,20.50
2022-08-25T22:19:27.293Z,20.50
2022-08-25T22:21:55.375Z,20.50
2022-08-25T22:24:22.424Z,20.50
2022-08-25T22:26:49.950Z,20.50
2022-08-25T22:29:25.315Z,20.50
2022-08-25T22:31:59.272Z,20.50
2022-08-25T22:34:30.337Z,20.50
2022-08-25T22:37:02.093Z,20.50
2022-08-25T22:39:32.090Z,20.50
2022-08-25T22:41:59.687Z,20.50
2022-08-25T22:44:27.794Z,20.50
2022-08-25T22:46:54.629Z,20.50
2022-08-25T22:49:21.704Z,20.50
2022-08-25T22:51:48.893Z,20.50
2022-08-25T22:54:16.008Z,20.40
2022-08-25T22:56:43.552Z,20.40
2022-08-25T22:59:12.807Z,20.40
2022-08-25T23:01:43.104Z,20.30
2022-08-25T23:04:10.884Z,20.00
2022-08-25T23:06:38.969Z,19.80
2022-08-25T23:09:08.889Z,19.80
2022-08-25T23:11:38.589Z,19.80
2022-08-25T23:14:09.940Z,19.80
2022-08-25T23:16:42.153Z,19.80
2022-08-25T23:19:14.724Z,19.80
2022-08-25T23:22:01.373Z,19.90
2022-08-25T23:24:30.313Z,19.80
2022-08-25T23:27:04.270Z,19.70
2022-08-25T23:29:34.180Z,19.60
2022-08-25T23:32:01.665Z,19.50
2022-08-25T23:34:28.773Z,19.50
2022-08-25T23:36:56.650Z,19.40
2022-08-25T23:39:24.209Z,19.40
2022-08-25T23:41:51.978Z,19.30
2022-08-25T23:44:21.192Z,19.30
2022-08-25T23:46:49.112Z,19.20
2022-08-25T23:49:21.916Z,19.10
2022-08-25T23:51:52.802Z,19.10
2022-08-25T23:54:21.227Z,19.10
2022-08-25T23:56:52.010Z,19.10
2022-08-25T23:59:24.380Z,19.00
